sensor_id;sensor_type;location;lat;lon;timestamp;temperature;humidity
15152;DHT22;7676;50.900;6.234;2023-12-04T00:00:32;-0.20;99.90
15152;DHT22;7676;50.900;6.234;2023-12-04T00:15:35;-0.20;99.90
15152;DHT22;7676;50.900;6.234;2023-12-04T00:30:37;0.30;99.90
15152;DHT22;7676;50.900;6.234;2023-12-04T00:45:39;0.30;99.90
15152;DHT22;7676;50.900;6.234;2023-12-04T01:00:42;0.40;99.90
15152;DHT22;7676;50.900;6.234;2023-12-04T01:15:45;0.30;99.90
15152;DHT22;7676;50.900;6.234;2023-12-04T01:30:49;0.00;99.90
15152;DHT22;7676;50.900;6.234;2023-12-04T01:45:52;-0.30;99.90
15152;DHT22;7676;50.900;6.234;2023-12-04T02:00:55;-0.30;99.90
15152;DHT22;7676;50.900;6.234;2023-12-04T02:16:01;-0.10;99.90
15152;DHT22;7676;50.900;6.234;2023-12-04T02:31:06;-0.30;99.90
15152;DHT22;7676;50.900;6.234;2023-12-04T02:46:10;0.10;99.90
15152;DHT22;7676;50.900;6.234;2023-12-04T03:01:12;-0.30;99.90
15152;DHT22;7676;50.900;6.234;2023-12-04T03:16:18;-0.30;99.90
15152;DHT22;7676;50.900;6.234;2023-12-04T03:31:22;-0.80;99.90
15152;DHT22;7676;50.900;6.234;2023-12-04T03:46:25;-0.60;99.90
15152;DHT22;7676;50.900;6.234;2023-12-04T04:01:28;-0.60;99.90
15152;DHT22;7676;50.900;6.234;2023-12-04T04:16:30;-0.40;99.90
15152;DHT22;7676;50.900;6.234;2023-12-04T04:31:33;-0.80;99.90
15152;DHT22;7676;50.900;6.234;2023-12-04T04:46:35;-1.00;99.90
15152;DHT22;7676;50.900;6.234;2023-12-04T05:01:38;-0.70;99.90
15152;DHT22;7676;50.900;6.234;2023-12-04T05:16:40;-1.00;99.90
15152;DHT22;7676;50.900;6.234;2023-12-04T05:31:43;-0.90;99.90
15152;DHT22;7676;50.900;6.234;2023-12-04T05:46:45;-1.00;99.90
15152;DHT22;7676;50.900;6.234;2023-12-04T06:01:48;-0.70;99.90
15152;DHT22;7676;50.900;6.234;2023-12-04T06:16:50;-1.00;99.90
15152;DHT22;7676;50.900;6.234;2023-12-04T06:31:53;-1.30;99.90
15152;DHT22;7676;50.900;6.234;2023-12-04T06:46:59;-1.30;99.90
15152;DHT22;7676;50.900;6.234;2023-12-04T07:02:02;-1.20;99.90
15152;DHT22;7676;50.900;6.234;2023-12-04T07:17:06;-1.10;99.90
15152;DHT22;7676;50.900;6.234;2023-12-04T07:32:08;-1.30;99.90
15152;DHT22;7676;50.900;6.234;2023-12-04T07:47:11;-1.50;99.90
15152;DHT22;7676;50.900;6.234;2023-12-04T08:02:14;-1.50;99.90
15152;DHT22;7676;50.900;6.234;2023-12-04T08:17:16;-1.60;99.90
15152;DHT22;7676;50.900;6.234;2023-12-04T08:32:19;-1.40;99.90
15152;DHT22;7676;50.900;6.234;2023-12-04T08:47:23;-1.30;99.90
15152;DHT22;7676;50.900;6.234;2023-12-04T09:02:26;-1.00;99.90
15152;DHT22;7676;50.900;6.234;2023-12-04T09:17:29;-0.50;99.90
15152;DHT22;7676;50.900;6.234;2023-12-04T09:32:40;-0.40;99.90
15152;DHT22;7676;50.900;6.234;2023-12-04T09:47:43;-0.60;99.90
15152;DHT22;7676;50.900;6.234;2023-12-04T10:02:47;-0.70;99.90
15152;DHT22;7676;50.900;6.234;2023-12-04T10:17:50;-0.80;99.90
15152;DHT22;7676;50.900;6.234;2023-12-04T10:33:04;-0.80;99.90
15152;DHT22;7676;50.900;6.234;2023-12-04T10:48:09;-0.20;99.90
15152;DHT22;7676;50.900;6.234;2023-12-04T11:03:36;0.00;99.90
15152;DHT22;7676;50.900;6.234;2023-12-04T11:18:44;0.40;99.90
15152;DHT22;7676;50.900;6.234;2023-12-04T11:33:50;0.50;99.90
15152;DHT22;7676;50.900;6.234;2023-12-04T11:49:27;1.00;99.90
15152;DHT22;7676;50.900;6.234;2023-12-04T12:04:34;0.80;99.90
15152;DHT22;7676;50.900;6.234;2023-12-04T12:19:36;0.70;99.90
15152;DHT22;7676;50.900;6.234;2023-12-04T12:34:40;0.40;99.90
15152;DHT22;7676;50.900;6.234;2023-12-04T12:49:44;0.40;99.90
15152;DHT22;7676;50.900;6.234;2023-12-04T13:04:46;0.10;99.90
15152;DHT22;7676;50.900;6.234;2023-12-04T13:19:49;-0.50;99.90
15152;DHT22;7676;50.900;6.234;2023-12-04T13:34:52;-0.60;99.90
15152;DHT22;7676;50.900;6.234;2023-12-04T13:49:56;-0.70;99.90
15152;DHT22;7676;50.900;6.234;2023-12-04T14:05:00;-1.00;99.90
15152;DHT22;7676;50.900;6.234;2023-12-04T14:20:03;-0.90;99.90
15152;DHT22;7676;50.900;6.234;2023-12-04T14:35:14;-0.90;99.90
15152;DHT22;7676;50.900;6.234;2023-12-04T14:50:17;-1.10;99.90
15152;DHT22;7676;50.900;6.234;2023-12-04T15:05:20;-1.20;99.90
15152;DHT22;7676;50.900;6.234;2023-12-04T15:20:22;-1.20;99.90
15152;DHT22;7676;50.900;6.234;2023-12-04T15:35:31;-1.20;99.90
15152;DHT22;7676;50.900;6.234;2023-12-04T15:50:33;-1.10;99.90
15152;DHT22;7676;50.900;6.234;2023-12-04T16:05:37;-0.90;99.90
15152;DHT22;7676;50.900;6.234;2023-12-04T16:20:40;-0.80;99.90
15152;DHT22;7676;50.900;6.234;2023-12-04T16:35:43;-0.90;99.90
15152;DHT22;7676;50.900;6.234;2023-12-04T16:50:45;-0.90;99.90
15152;DHT22;7676;50.900;6.234;2023-12-04T17:05:48;-1.00;99.90
15152;DHT22;7676;50.900;6.234;2023-12-04T17:20:53;-0.90;99.90
15152;DHT22;7676;50.900;6.234;2023-12-04T17:35:55;-0.80;99.90
15152;DHT22;7676;50.900;6.234;2023-12-04T17:50:58;-0.80;99.90
15152;DHT22;7676;50.900;6.234;2023-12-04T18:06:42;-0.80;99.90
15152;DHT22;7676;50.900;6.234;2023-12-04T18:21:44;-0.60;99.90
15152;DHT22;7676;50.900;6.234;2023-12-04T18:36:53;-0.90;99.90
15152;DHT22;7676;50.900;6.234;2023-12-04T18:51:56;-0.50;99.90
15152;DHT22;7676;50.900;6.234;2023-12-04T19:07:01;-0.50;99.90
15152;DHT22;7676;50.900;6.234;2023-12-04T19:22:03;-0.20;99.90
15152;DHT22;7676;50.900;6.234;2023-12-04T19:37:06;-0.30;99.90
15152;DHT22;7676;50.900;6.234;2023-12-04T19:52:10;-0.20;99.90
15152;DHT22;7676;50.900;6.234;2023-12-04T20:07:13;-0.10;99.90
15152;DHT22;7676;50.900;6.234;2023-12-04T20:22:15;0.20;99.90
15152;DHT22;7676;50.900;6.234;2023-12-04T20:37:18;0.40;99.90
15152;DHT22;7676;50.900;6.234;2023-12-04T20:52:21;0.50;99.90
15152;DHT22;7676;50.900;6.234;2023-12-04T21:07:24;0.50;99.90
15152;DHT22;7676;50.900;6.234;2023-12-04T21:22:29;0.60;99.90
15152;DHT22;7676;50.900;6.234;2023-12-04T21:37:31;0.50;99.90
15152;DHT22;7676;50.900;6.234;2023-12-04T21:52:34;0.50;99.90
15152;DHT22;7676;50.900;6.234;2023-12-04T22:07:37;0.70;99.90
15152;DHT22;7676;50.900;6.234;2023-12-04T22:22:40;1.00;99.90
15152;DHT22;7676;50.900;6.234;2023-12-04T22:37:42;0.80;99.90
15152;DHT22;7676;50.900;6.234;2023-12-04T22:52:45;0.90;99.90
15152;DHT22;7676;50.900;6.234;2023-12-04T23:07:52;1.30;99.90
15152;DHT22;7676;50.900;6.234;2023-12-04T23:22:56;1.20;99.90
15152;DHT22;7676;50.900;6.234;2023-12-04T23:37:58;1.10;99.90
15152;DHT22;7676;50.900;6.234;2023-12-04T23:53:01;1.20;99.90
